sensor_id;sensor_type;location;lat;lon;timestamp;P1;durP1;ratioP1;P2;durP2;ratioP2
10479;SDS011;12789;42.610;23.040;2022-07-23T00:00:01;12.52;;;6.45;;
10479;SDS011;12789;42.610;23.040;2022-07-23T00:02:29;12.93;;;6.90;;
10479;SDS011;12789;42.610;23.040;2022-07-23T00:04:58;10.38;;;6.28;;
10479;SDS011;12789;42.610;23.040;2022-07-23T00:07:25;9.75;;;6.07;;
10479;SDS011;12789;42.610;23.040;2022-07-23T00:09:55;10.15;;;6.68;;
10479;SDS011;12789;42.610;23.040;2022-07-23T00:12:35;9.90;;;5.60;;
10479;SDS011;12789;42.610;23.040;2022-07-23T00:15:06;10.18;;;6.00;;
10479;SDS011;12789;42.610;23.040;2022-07-23T00:17:36;10.88;;;6.25;;
10479;SDS011;12789;42.610;23.040;2022-07-23T00:20:10;9.40;;;6.55;;
10479;SDS011;12789;42.610;23.040;2022-07-23T00:22:45;11.75;;;5.82;;
10479;SDS011;12789;42.610;23.040;2022-07-23T00:25:16;9.68;;;6.20;;
10479;SDS011;12789;42.610;23.040;2022-07-23T00:27:48;10.13;;;5.72;;
10479;SDS011;12789;42.610;23.040;2022-07-23T00:30:15;14.95;;;5.82;;
10479;SDS011;12789;42.610;23.040;2022-07-23T00:32:47;10.95;;;5.85;;
10479;SDS011;12789;42.610;23.040;2022-07-23T00:35:22;9.82;;;5.85;;
10479;SDS011;12789;42.610;23.040;2022-07-23T00:37:50;9.45;;;5.70;;
10479;SDS011;12789;42.610;23.040;2022-07-23T00:40:17;7.57;;;5.80;;
10479;SDS011;12789;42.610;23.040;2022-07-23T00:42:46;15.00;;;5.68;;
10479;SDS011;12789;42.610;23.040;2022-07-23T00:45:19;11.40;;;5.50;;
10479;SDS011;12789;42.610;23.040;2022-07-23T00:47:47;8.00;;;5.68;;
10479;SDS011;12789;42.610;23.040;2022-07-23T00:50:14;15.50;;;5.88;;
10479;SDS011;12789;42.610;23.040;2022-07-23T00:52:43;11.13;;;6.10;;
10479;SDS011;12789;42.610;23.040;2022-07-23T00:55:17;13.95;;;6.22;;
10479;SDS011;12789;42.610;23.040;2022-07-23T01:00:53;10.88;;;6.20;;
10479;SDS011;12789;42.610;23.040;2022-07-23T01:03:26;11.27;;;6.28;;
10479;SDS011;12789;42.610;23.040;2022-07-23T01:05:58;16.05;;;6.22;;
10479;SDS011;12789;42.610;23.040;2022-07-23T01:08:31;10.35;;;6.45;;
10479;SDS011;12789;42.610;23.040;2022-07-23T01:11:02;13.30;;;6.55;;
10479;SDS011;12789;42.610;23.040;2022-07-23T01:13:30;16.85;;;6.70;;
10479;SDS011;12789;42.610;23.040;2022-07-23T01:15:57;13.63;;;7.63;;
10479;SDS011;12789;42.610;23.040;2022-07-23T01:18:30;14.50;;;6.65;;
10479;SDS011;12789;42.610;23.040;2022-07-23T01:21:06;12.43;;;7.00;;
10479;SDS011;12789;42.610;23.040;2022-07-23T01:24:00;13.30;;;7.13;;
10479;SDS011;12789;42.610;23.040;2022-07-23T01:27:42;11.13;;;6.97;;
10479;SDS011;12789;42.610;23.040;2022-07-23T01:30:09;14.05;;;7.07;;
10479;SDS011;12789;42.610;23.040;2022-07-23T01:32:37;13.35;;;7.40;;
10479;SDS011;12789;42.610;23.040;2022-07-23T01:35:05;14.60;;;7.72;;
10479;SDS011;12789;42.610;23.040;2022-07-23T01:37:36;16.33;;;7.18;;
10479;SDS011;12789;42.610;23.040;2022-07-23T01:40:09;15.63;;;7.03;;
10479;SDS011;12789;42.610;23.040;2022-07-23T01:42:37;10.85;;;6.85;;
10479;SDS011;12789;42.610;23.040;2022-07-23T01:45:05;13.27;;;7.63;;
10479;SDS011;12789;42.610;23.040;2022-07-23T01:47:33;15.40;;;7.00;;
10479;SDS011;12789;42.610;23.040;2022-07-23T01:50:01;11.50;;;7.35;;
10479;SDS011;12789;42.610;23.040;2022-07-23T01:52:30;15.45;;;7.25;;
10479;SDS011;12789;42.610;23.040;2022-07-23T01:54:58;12.05;;;7.78;;
10479;SDS011;12789;42.610;23.040;2022-07-23T01:57:34;12.88;;;7.10;;
10479;SDS011;12789;42.610;23.040;2022-07-23T02:00:05;14.13;;;6.82;;
10479;SDS011;12789;42.610;23.040;2022-07-23T02:02:33;14.23;;;6.82;;
10479;SDS011;12789;42.610;23.040;2022-07-23T02:05:01;10.23;;;6.72;;
10479;SDS011;12789;42.610;23.040;2022-07-23T02:07:31;13.73;;;7.30;;
10479;SDS011;12789;42.610;23.040;2022-07-23T02:10:03;10.63;;;6.22;;
10479;SDS011;12789;42.610;23.040;2022-07-23T02:12:33;12.15;;;6.65;;
10479;SDS011;12789;42.610;23.040;2022-07-23T02:15:11;14.50;;;6.32;;
10479;SDS011;12789;42.610;23.040;2022-07-23T02:17:39;11.98;;;6.82;;
10479;SDS011;12789;42.610;23.040;2022-07-23T02:20:08;14.93;;;6.15;;
10479;SDS011;12789;42.610;23.040;2022-07-23T02:22:36;10.15;;;5.82;;
10479;SDS011;12789;42.610;23.040;2022-07-23T02:25:06;10.15;;;6.47;;
10479;SDS011;12789;42.610;23.040;2022-07-23T02:27:35;10.88;;;6.70;;
10479;SDS011;12789;42.610;23.040;2022-07-23T02:30:03;12.77;;;6.60;;
10479;SDS011;12789;42.610;23.040;2022-07-23T02:32:32;18.35;;;5.68;;
10479;SDS011;12789;42.610;23.040;2022-07-23T02:34:59;13.55;;;6.22;;
10479;SDS011;12789;42.610;23.040;2022-07-23T02:37:26;10.70;;;6.22;;
10479;SDS011;12789;42.610;23.040;2022-07-23T02:39:53;12.02;;;7.68;;
10479;SDS011;12789;42.610;23.040;2022-07-23T02:42:21;12.75;;;6.75;;
10479;SDS011;12789;42.610;23.040;2022-07-23T02:44:53;11.90;;;6.38;;
10479;SDS011;12789;42.610;23.040;2022-07-23T02:47:22;10.63;;;6.00;;
10479;SDS011;12789;42.610;23.040;2022-07-23T02:49:51;13.18;;;6.10;;
10479;SDS011;12789;42.610;23.040;2022-07-23T02:52:18;12.18;;;6.05;;
10479;SDS011;12789;42.610;23.040;2022-07-23T02:54:46;15.38;;;6.07;;
10479;SDS011;12789;42.610;23.040;2022-07-23T02:57:13;12.57;;;6.55;;
10479;SDS011;12789;42.610;23.040;2022-07-23T02:59:40;10.95;;;6.45;;
10479;SDS011;12789;42.610;23.040;2022-07-23T03:02:09;12.70;;;7.15;;
10479;SDS011;12789;42.610;23.040;2022-07-23T03:04:36;12.43;;;6.72;;
10479;SDS011;12789;42.610;23.040;2022-07-23T03:07:05;11.05;;;7.15;;
10479;SDS011;12789;42.610;23.040;2022-07-23T03:09:36;16.73;;;7.85;;
10479;SDS011;12789;42.610;23.040;2022-07-23T03:12:06;14.60;;;7.65;;
10479;SDS011;12789;42.610;23.040;2022-07-23T03:14:33;19.48;;;6.97;;
10479;SDS011;12789;42.610;23.040;2022-07-23T03:17:01;16.65;;;9.15;;
10479;SDS011;12789;42.610;23.040;2022-07-23T03:19:30;19.88;;;8.15;;
10479;SDS011;12789;42.610;23.040;2022-07-23T03:21:57;15.90;;;7.88;;
10479;SDS011;12789;42.610;23.040;2022-07-23T03:24:23;14.05;;;8.27;;
10479;SDS011;12789;42.610;23.040;2022-07-23T03:27:11;19.60;;;8.02;;
10479;SDS011;12789;42.610;23.040;2022-07-23T03:29:38;12.65;;;7.55;;
10479;SDS011;12789;42.610;23.040;2022-07-23T03:32:05;13.77;;;7.45;;
10479;SDS011;12789;42.610;23.040;2022-07-23T03:34:34;19.95;;;8.75;;
10479;SDS011;12789;42.610;23.040;2022-07-23T03:37:03;16.75;;;8.68;;
10479;SDS011;12789;42.610;23.040;2022-07-23T03:39:43;19.40;;;8.27;;
10479;SDS011;12789;42.610;23.040;2022-07-23T03:42:10;13.20;;;7.47;;
10479;SDS011;12789;42.610;23.040;2022-07-23T03:44:37;19.58;;;8.13;;
10479;SDS011;12789;42.610;23.040;2022-07-23T03:47:10;16.63;;;8.98;;
10479;SDS011;12789;42.610;23.040;2022-07-23T03:49:46;15.27;;;7.57;;
10479;SDS011;12789;42.610;23.040;2022-07-23T03:52:15;23.65;;;8.50;;
10479;SDS011;12789;42.610;23.040;2022-07-23T03:54:42;16.08;;;7.72;;
10479;SDS011;12789;42.610;23.040;2022-07-23T03:57:10;17.67;;;8.05;;
10479;SDS011;12789;42.610;23.040;2022-07-23T03:59:37;17.25;;;8.40;;
10479;SDS011;12789;42.610;23.040;2022-07-23T04:02:05;17.58;;;8.07;;
10479;SDS011;12789;42.610;23.040;2022-07-23T04:04:32;15.07;;;8.25;;
10479;SDS011;12789;42.610;23.040;2022-07-23T04:07:02;14.07;;;8.45;;
10479;SDS011;12789;42.610;23.040;2022-07-23T04:09:29;21.58;;;8.80;;
10479;SDS011;12789;42.610;23.040;2022-07-23T04:11:57;14.93;;;8.48;;
10479;SDS011;12789;42.610;23.040;2022-07-23T04:14:24;18.92;;;8.25;;
10479;SDS011;12789;42.610;23.040;2022-07-23T04:16:50;21.08;;;8.32;;
10479;SDS011;12789;42.610;23.040;2022-07-23T04:19:17;18.90;;;8.88;;
10479;SDS011;12789;42.610;23.040;2022-07-23T04:21:44;20.98;;;8.55;;
10479;SDS011;12789;42.610;23.040;2022-07-23T04:24:13;16.85;;;8.20;;
10479;SDS011;12789;42.610;23.040;2022-07-23T04:26:40;14.13;;;8.77;;
10479;SDS011;12789;42.610;23.040;2022-07-23T04:29:07;19.85;;;8.35;;
10479;SDS011;12789;42.610;23.040;2022-07-23T04:31:34;14.40;;;8.18;;
10479;SDS011;12789;42.610;23.040;2022-07-23T04:34:01;18.30;;;8.45;;
10479;SDS011;12789;42.610;23.040;2022-07-23T04:36:28;21.02;;;8.00;;
10479;SDS011;12789;42.610;23.040;2022-07-23T04:38:56;26.02;;;8.35;;
10479;SDS011;12789;42.610;23.040;2022-07-23T04:41:24;11.45;;;7.45;;
10479;SDS011;12789;42.610;23.040;2022-07-23T04:43:51;16.75;;;8.55;;
10479;SDS011;12789;42.610;23.040;2022-07-23T04:46:18;16.58;;;7.75;;
10479;SDS011;12789;42.610;23.040;2022-07-23T04:48:45;20.15;;;8.48;;
10479;SDS011;12789;42.610;23.040;2022-07-23T04:51:13;22.50;;;8.43;;
10479;SDS011;12789;42.610;23.040;2022-07-23T04:53:43;20.90;;;8.88;;
10479;SDS011;12789;42.610;23.040;2022-07-23T05:01:27;17.27;;;8.30;;
10479;SDS011;12789;42.610;23.040;2022-07-23T05:03:07;16.40;;;7.47;;
10479;SDS011;12789;42.610;23.040;2022-07-23T05:17:32;27.35;;;9.52;;
10479;SDS011;12789;42.610;23.040;2022-07-23T05:27:50;26.98;;;8.88;;
10479;SDS011;12789;42.610;23.040;2022-07-23T05:32:33;19.30;;;8.90;;
10479;SDS011;12789;42.610;23.040;2022-07-23T05:38:50;16.40;;;8.93;;
10479;SDS011;12789;42.610;23.040;2022-07-23T05:41:17;22.80;;;9.07;;
10479;SDS011;12789;42.610;23.040;2022-07-23T05:43:54;26.63;;;9.10;;
10479;SDS011;12789;42.610;23.040;2022-07-23T05:46:24;26.35;;;9.95;;
10479;SDS011;12789;42.610;23.040;2022-07-23T05:48:51;24.83;;;8.68;;
10479;SDS011;12789;42.610;23.040;2022-07-23T05:51:19;22.55;;;8.75;;
10479;SDS011;12789;42.610;23.040;2022-07-23T06:04:41;30.55;;;8.65;;
10479;SDS011;12789;42.610;23.040;2022-07-23T06:14:10;25.10;;;7.45;;
10479;SDS011;12789;42.610;23.040;2022-07-23T06:17:57;25.23;;;8.00;;
10479;SDS011;12789;42.610;23.040;2022-07-23T06:20:31;24.27;;;8.07;;
10479;SDS011;12789;42.610;23.040;2022-07-23T06:22:58;34.38;;;8.13;;
10479;SDS011;12789;42.610;23.040;2022-07-23T06:33:25;28.23;;;7.60;;
10479;SDS011;12789;42.610;23.040;2022-07-23T06:36:46;25.65;;;6.95;;
10479;SDS011;12789;42.610;23.040;2022-07-23T06:39:15;24.60;;;6.57;;
10479;SDS011;12789;42.610;23.040;2022-07-23T06:41:43;21.95;;;6.80;;
10479;SDS011;12789;42.610;23.040;2022-07-23T06:44:10;23.75;;;7.22;;
10479;SDS011;12789;42.610;23.040;2022-07-23T06:46:38;23.60;;;7.03;;
10479;SDS011;12789;42.610;23.040;2022-07-23T06:49:06;14.88;;;6.50;;
10479;SDS011;12789;42.610;23.040;2022-07-23T06:51:36;27.25;;;7.38;;
10479;SDS011;12789;42.610;23.040;2022-07-23T06:54:05;22.27;;;6.95;;
10479;SDS011;12789;42.610;23.040;2022-07-23T06:56:32;21.58;;;6.65;;
10479;SDS011;12789;42.610;23.040;2022-07-23T06:59:00;15.57;;;6.55;;
10479;SDS011;12789;42.610;23.040;2022-07-23T07:01:27;21.23;;;6.47;;
10479;SDS011;12789;42.610;23.040;2022-07-23T07:03:56;11.90;;;6.32;;
10479;SDS011;12789;42.610;23.040;2022-07-23T07:06:23;13.68;;;7.18;;
10479;SDS011;12789;42.610;23.040;2022-07-23T07:08:51;14.18;;;5.75;;
10479;SDS011;12789;42.610;23.040;2022-07-23T07:11:20;25.15;;;6.25;;
10479;SDS011;12789;42.610;23.040;2022-07-23T07:17:23;10.75;;;5.18;;
10479;SDS011;12789;42.610;23.040;2022-07-23T07:26:29;14.40;;;5.22;;
10479;SDS011;12789;42.610;23.040;2022-07-23T07:27:49;24.20;;;5.80;;
10479;SDS011;12789;42.610;23.040;2022-07-23T07:30:17;12.55;;;5.30;;
10479;SDS011;12789;42.610;23.040;2022-07-23T07:32:45;12.20;;;5.35;;
10479;SDS011;12789;42.610;23.040;2022-07-23T07:45:16;13.25;;;5.60;;
10479;SDS011;12789;42.610;23.040;2022-07-23T07:48:48;12.40;;;4.80;;
10479;SDS011;12789;42.610;23.040;2022-07-23T07:51:23;12.85;;;5.35;;
10479;SDS011;12789;42.610;23.040;2022-07-23T07:54:38;15.00;;;5.40;;
10479;SDS011;12789;42.610;23.040;2022-07-23T07:57:33;16.73;;;5.50;;
10479;SDS011;12789;42.610;23.040;2022-07-23T08:00:25;8.55;;;3.90;;
10479;SDS011;12789;42.610;23.040;2022-07-23T08:02:53;9.00;;;4.00;;
10479;SDS011;12789;42.610;23.040;2022-07-23T08:05:30;8.80;;;4.07;;
10479;SDS011;12789;42.610;23.040;2022-07-23T08:08:25;8.25;;;4.20;;
10479;SDS011;12789;42.610;23.040;2022-07-23T08:13:52;11.68;;;5.63;;
10479;SDS011;12789;42.610;23.040;2022-07-23T08:15:35;9.75;;;5.28;;
10479;SDS011;12789;42.610;23.040;2022-07-23T08:18:49;10.27;;;4.25;;
10479;SDS011;12789;42.610;23.040;2022-07-23T08:26:05;12.50;;;4.60;;
10479;SDS011;12789;42.610;23.040;2022-07-23T08:29:36;12.40;;;4.30;;
10479;SDS011;12789;42.610;23.040;2022-07-23T08:32:59;11.55;;;4.30;;
10479;SDS011;12789;42.610;23.040;2022-07-23T08:42:22;16.70;;;4.10;;
10479;SDS011;12789;42.610;23.040;2022-07-23T08:46:04;6.20;;;4.15;;
10479;SDS011;12789;42.610;23.040;2022-07-23T08:48:34;8.55;;;4.50;;
10479;SDS011;12789;42.610;23.040;2022-07-23T08:51:03;15.88;;;5.35;;
10479;SDS011;12789;42.610;23.040;2022-07-23T08:53:32;14.02;;;4.90;;
10479;SDS011;12789;42.610;23.040;2022-07-23T08:56:01;9.77;;;4.55;;
10479;SDS011;12789;42.610;23.040;2022-07-23T08:58:34;8.88;;;4.55;;
10479;SDS011;12789;42.610;23.040;2022-07-23T09:01:02;11.10;;;4.60;;
10479;SDS011;12789;42.610;23.040;2022-07-23T09:03:30;8.00;;;4.47;;
10479;SDS011;12789;42.610;23.040;2022-07-23T09:06:00;10.48;;;4.05;;
10479;SDS011;12789;42.610;23.040;2022-07-23T09:08:33;8.90;;;3.30;;
10479;SDS011;12789;42.610;23.040;2022-07-23T09:11:03;7.60;;;4.15;;
10479;SDS011;12789;42.610;23.040;2022-07-23T09:13:32;10.48;;;4.15;;
10479;SDS011;12789;42.610;23.040;2022-07-23T09:16:03;8.95;;;4.00;;
10479;SDS011;12789;42.610;23.040;2022-07-23T09:18:34;12.45;;;3.60;;
10479;SDS011;12789;42.610;23.040;2022-07-23T09:23:55;7.93;;;3.97;;
10479;SDS011;12789;42.610;23.040;2022-07-23T09:26:33;6.70;;;3.83;;
10479;SDS011;12789;42.610;23.040;2022-07-23T09:29:03;5.03;;;3.53;;
10479;SDS011;12789;42.610;23.040;2022-07-23T09:31:33;4.68;;;3.65;;
10479;SDS011;12789;42.610;23.040;2022-07-23T09:34:12;5.28;;;3.58;;
10479;SDS011;12789;42.610;23.040;2022-07-23T09:36:44;7.53;;;3.40;;
10479;SDS011;12789;42.610;23.040;2022-07-23T09:39:13;6.25;;;3.42;;
10479;SDS011;12789;42.610;23.040;2022-07-23T09:41:43;5.38;;;3.13;;
10479;SDS011;12789;42.610;23.040;2022-07-23T09:44:13;7.38;;;3.30;;
10479;SDS011;12789;42.610;23.040;2022-07-23T09:46:48;6.97;;;3.05;;
10479;SDS011;12789;42.610;23.040;2022-07-23T09:49:29;7.00;;;3.92;;
10479;SDS011;12789;42.610;23.040;2022-07-23T09:52:02;7.25;;;2.92;;
10479;SDS011;12789;42.610;23.040;2022-07-23T09:54:31;10.05;;;3.10;;
10479;SDS011;12789;42.610;23.040;2022-07-23T09:57:02;5.40;;;3.13;;
10479;SDS011;12789;42.610;23.040;2022-07-23T09:59:32;7.03;;;3.30;;
10479;SDS011;12789;42.610;23.040;2022-07-23T10:02:00;11.65;;;3.35;;
10479;SDS011;12789;42.610;23.040;2022-07-23T10:04:30;6.07;;;3.17;;
10479;SDS011;12789;42.610;23.040;2022-07-23T10:07:11;7.55;;;2.95;;
10479;SDS011;12789;42.610;23.040;2022-07-23T10:09:55;6.13;;;3.13;;
10479;SDS011;12789;42.610;23.040;2022-07-23T10:12:23;5.10;;;2.92;;
10479;SDS011;12789;42.610;23.040;2022-07-23T10:15:17;8.30;;;2.92;;
10479;SDS011;12789;42.610;23.040;2022-07-23T10:17:45;8.18;;;3.05;;
10479;SDS011;12789;42.610;23.040;2022-07-23T10:31:35;7.35;;;3.08;;
10479;SDS011;12789;42.610;23.040;2022-07-23T10:34:40;8.90;;;3.38;;
10479;SDS011;12789;42.610;23.040;2022-07-23T10:38:20;3.58;;;2.83;;
10479;SDS011;12789;42.610;23.040;2022-07-23T10:44:38;8.98;;;3.00;;
10479;SDS011;12789;42.610;23.040;2022-07-23T10:47:09;9.13;;;3.03;;
10479;SDS011;12789;42.610;23.040;2022-07-23T10:49:44;9.20;;;2.83;;
10479;SDS011;12789;42.610;23.040;2022-07-23T10:52:21;8.40;;;3.55;;
10479;SDS011;12789;42.610;23.040;2022-07-23T10:54:51;7.22;;;2.85;;
10479;SDS011;12789;42.610;23.040;2022-07-23T10:57:21;9.65;;;3.10;;
10479;SDS011;12789;42.610;23.040;2022-07-23T11:10:39;22.55;;;3.55;;
10479;SDS011;12789;42.610;23.040;2022-07-23T11:16:46;6.22;;;2.97;;
10479;SDS011;12789;42.610;23.040;2022-07-23T11:26:49;9.90;;;3.38;;
10479;SDS011;12789;42.610;23.040;2022-07-23T11:32:18;9.57;;;3.53;;
10479;SDS011;12789;42.610;23.040;2022-07-23T11:35:19;11.55;;;3.15;;
10479;SDS011;12789;42.610;23.040;2022-07-23T11:37:52;9.20;;;3.78;;
10479;SDS011;12789;42.610;23.040;2022-07-23T11:40:29;7.35;;;3.30;;
10479;SDS011;12789;42.610;23.040;2022-07-23T11:43:24;9.82;;;2.80;;
10479;SDS011;12789;42.610;23.040;2022-07-23T11:45:59;9.75;;;3.03;;
10479;SDS011;12789;42.610;23.040;2022-07-23T11:49:47;9.70;;;3.33;;
10479;SDS011;12789;42.610;23.040;2022-07-23T11:55:39;10.82;;;3.28;;
10479;SDS011;12789;42.610;23.040;2022-07-23T12:01:57;9.15;;;2.85;;
10479;SDS011;12789;42.610;23.040;2022-07-23T12:17:47;6.72;;;2.88;;
10479;SDS011;12789;42.610;23.040;2022-07-23T12:20:15;10.07;;;3.35;;
10479;SDS011;12789;42.610;23.040;2022-07-23T12:23:09;9.27;;;3.00;;
10479;SDS011;12789;42.610;23.040;2022-07-23T12:26:09;7.78;;;2.97;;
10479;SDS011;12789;42.610;23.040;2022-07-23T12:28:51;14.05;;;3.20;;
10479;SDS011;12789;42.610;23.040;2022-07-23T12:31:25;9.93;;;2.80;;
10479;SDS011;12789;42.610;23.040;2022-07-23T12:33:54;10.82;;;3.13;;
10479;SDS011;12789;42.610;23.040;2022-07-23T12:36:22;11.85;;;3.15;;
10479;SDS011;12789;42.610;23.040;2022-07-23T12:39:32;9.82;;;2.83;;
10479;SDS011;12789;42.610;23.040;2022-07-23T12:42:34;15.15;;;3.28;;
10479;SDS011;12789;42.610;23.040;2022-07-23T12:45:49;11.23;;;3.38;;
10479;SDS011;12789;42.610;23.040;2022-07-23T12:48:25;4.97;;;2.90;;
10479;SDS011;12789;42.610;23.040;2022-07-23T12:51:22;8.88;;;2.85;;
10479;SDS011;12789;42.610;23.040;2022-07-23T12:54:03;9.90;;;2.90;;
10479;SDS011;12789;42.610;23.040;2022-07-23T12:56:32;10.88;;;2.88;;
10479;SDS011;12789;42.610;23.040;2022-07-23T12:59:21;6.30;;;2.78;;
10479;SDS011;12789;42.610;23.040;2022-07-23T13:02:20;11.18;;;3.45;;
10479;SDS011;12789;42.610;23.040;2022-07-23T13:05:13;7.38;;;2.70;;
10479;SDS011;12789;42.610;23.040;2022-07-23T13:07:44;4.65;;;2.90;;
10479;SDS011;12789;42.610;23.040;2022-07-23T13:10:34;7.22;;;2.90;;
10479;SDS011;12789;42.610;23.040;2022-07-23T13:13:03;6.35;;;3.08;;
10479;SDS011;12789;42.610;23.040;2022-07-23T13:15:34;8.77;;;3.15;;
10479;SDS011;12789;42.610;23.040;2022-07-23T13:18:02;7.55;;;2.92;;
10479;SDS011;12789;42.610;23.040;2022-07-23T13:20:32;7.88;;;3.13;;
10479;SDS011;12789;42.610;23.040;2022-07-23T13:23:01;7.20;;;2.88;;
10479;SDS011;12789;42.610;23.040;2022-07-23T13:25:40;11.65;;;2.92;;
10479;SDS011;12789;42.610;23.040;2022-07-23T13:28:21;7.35;;;2.92;;
10479;SDS011;12789;42.610;23.040;2022-07-23T13:32:10;8.57;;;3.08;;
10479;SDS011;12789;42.610;23.040;2022-07-23T13:34:17;8.82;;;2.80;;
10479;SDS011;12789;42.610;23.040;2022-07-23T13:38:19;7.82;;;2.60;;
10479;SDS011;12789;42.610;23.040;2022-07-23T13:40:06;9.73;;;2.95;;
10479;SDS011;12789;42.610;23.040;2022-07-23T13:42:43;6.50;;;2.53;;
10479;SDS011;12789;42.610;23.040;2022-07-23T13:45:45;5.63;;;2.83;;
10479;SDS011;12789;42.610;23.040;2022-07-23T13:48:14;9.35;;;3.22;;
10479;SDS011;12789;42.610;23.040;2022-07-23T13:50:57;7.05;;;2.92;;
10479;SDS011;12789;42.610;23.040;2022-07-23T13:54:30;7.50;;;2.78;;
10479;SDS011;12789;42.610;23.040;2022-07-23T13:57:21;12.55;;;3.75;;
10479;SDS011;12789;42.610;23.040;2022-07-23T14:01:21;9.73;;;3.38;;
10479;SDS011;12789;42.610;23.040;2022-07-23T14:07:55;10.27;;;3.25;;
10479;SDS011;12789;42.610;23.040;2022-07-23T14:17:58;6.57;;;3.20;;
10479;SDS011;12789;42.610;23.040;2022-07-23T14:21:12;7.13;;;2.83;;
10479;SDS011;12789;42.610;23.040;2022-07-23T14:24:33;6.97;;;2.78;;
10479;SDS011;12789;42.610;23.040;2022-07-23T14:28:18;5.45;;;2.88;;
10479;SDS011;12789;42.610;23.040;2022-07-23T14:31:46;8.57;;;2.95;;
10479;SDS011;12789;42.610;23.040;2022-07-23T14:35:03;5.68;;;3.13;;
10479;SDS011;12789;42.610;23.040;2022-07-23T14:49:46;8.55;;;2.67;;
10479;SDS011;12789;42.610;23.040;2022-07-23T14:57:24;10.90;;;3.22;;
10479;SDS011;12789;42.610;23.040;2022-07-23T15:01:02;8.95;;;3.33;;
10479;SDS011;12789;42.610;23.040;2022-07-23T15:04:24;9.35;;;3.25;;
10479;SDS011;12789;42.610;23.040;2022-07-23T15:11:49;7.35;;;3.00;;
10479;SDS011;12789;42.610;23.040;2022-07-23T16:01:59;11.85;;;3.92;;
10479;SDS011;12789;42.610;23.040;2022-07-23T16:04:52;11.13;;;3.85;;
10479;SDS011;12789;42.610;23.040;2022-07-23T16:07:39;9.98;;;4.00;;
10479;SDS011;12789;42.610;23.040;2022-07-23T16:11:01;11.65;;;3.53;;
10479;SDS011;12789;42.610;23.040;2022-07-23T16:14:26;12.05;;;4.80;;
10479;SDS011;12789;42.610;23.040;2022-07-23T16:17:30;10.75;;;4.05;;
10479;SDS011;12789;42.610;23.040;2022-07-23T16:20:11;9.20;;;4.00;;
10479;SDS011;12789;42.610;23.040;2022-07-23T16:22:42;9.88;;;3.92;;
10479;SDS011;12789;42.610;23.040;2022-07-23T16:25:12;7.57;;;3.28;;
10479;SDS011;12789;42.610;23.040;2022-07-23T16:27:40;5.15;;;3.40;;
10479;SDS011;12789;42.610;23.040;2022-07-23T16:30:27;11.75;;;3.70;;
10479;SDS011;12789;42.610;23.040;2022-07-23T16:33:21;11.70;;;4.70;;
10479;SDS011;12789;42.610;23.040;2022-07-23T16:35:56;11.30;;;3.70;;
10479;SDS011;12789;42.610;23.040;2022-07-23T16:38:29;7.45;;;3.80;;
10479;SDS011;12789;42.610;23.040;2022-07-23T16:41:04;8.10;;;3.33;;
10479;SDS011;12789;42.610;23.040;2022-07-23T16:43:33;11.15;;;3.53;;
10479;SDS011;12789;42.610;23.040;2022-07-23T16:46:15;9.95;;;3.67;;
10479;SDS011;12789;42.610;23.040;2022-07-23T16:49:11;14.18;;;3.85;;
10479;SDS011;12789;42.610;23.040;2022-07-23T16:51:38;9.80;;;3.95;;
10479;SDS011;12789;42.610;23.040;2022-07-23T16:54:05;17.52;;;4.05;;
10479;SDS011;12789;42.610;23.040;2022-07-23T16:56:32;7.63;;;3.65;;
10479;SDS011;12789;42.610;23.040;2022-07-23T17:02:06;8.23;;;3.92;;
10479;SDS011;12789;42.610;23.040;2022-07-23T17:04:34;9.90;;;4.10;;
10479;SDS011;12789;42.610;23.040;2022-07-23T17:13:22;7.25;;;3.97;;
10479;SDS011;12789;42.610;23.040;2022-07-23T17:23:49;10.18;;;4.00;;
10479;SDS011;12789;42.610;23.040;2022-07-23T17:26:58;13.80;;;5.32;;
10479;SDS011;12789;42.610;23.040;2022-07-23T17:30:30;12.32;;;4.72;;
10479;SDS011;12789;42.610;23.040;2022-07-23T17:33:59;13.15;;;4.60;;
10479;SDS011;12789;42.610;23.040;2022-07-23T17:39:01;10.75;;;4.75;;
10479;SDS011;12789;42.610;23.040;2022-07-23T17:40:56;9.40;;;5.05;;
10479;SDS011;12789;42.610;23.040;2022-07-23T17:43:23;11.35;;;5.13;;
10479;SDS011;12789;42.610;23.040;2022-07-23T17:45:56;12.45;;;5.43;;
10479;SDS011;12789;42.610;23.040;2022-07-23T17:48:32;12.23;;;6.25;;
10479;SDS011;12789;42.610;23.040;2022-07-23T17:51:07;15.27;;;5.88;;
10479;SDS011;12789;42.610;23.040;2022-07-23T17:53:34;13.00;;;6.47;;
10479;SDS011;12789;42.610;23.040;2022-07-23T18:15:09;12.13;;;6.20;;
10479;SDS011;12789;42.610;23.040;2022-07-23T18:17:37;12.90;;;5.60;;
10479;SDS011;12789;42.610;23.040;2022-07-23T18:20:08;16.17;;;5.95;;
10479;SDS011;12789;42.610;23.040;2022-07-23T18:22:45;13.77;;;6.03;;
10479;SDS011;12789;42.610;23.040;2022-07-23T18:40:39;14.90;;;5.85;;
10479;SDS011;12789;42.610;23.040;2022-07-23T18:48:29;14.63;;;5.70;;
10479;SDS011;12789;42.610;23.040;2022-07-23T18:51:08;12.25;;;5.63;;
10479;SDS011;12789;42.610;23.040;2022-07-23T18:54:06;15.27;;;5.97;;
10479;SDS011;12789;42.610;23.040;2022-07-23T18:56:36;15.85;;;5.85;;
10479;SDS011;12789;42.610;23.040;2022-07-23T18:59:03;19.08;;;5.47;;
10479;SDS011;12789;42.610;23.040;2022-07-23T19:01:36;17.08;;;5.60;;
10479;SDS011;12789;42.610;23.040;2022-07-23T19:04:12;18.30;;;5.65;;
10479;SDS011;12789;42.610;23.040;2022-07-23T19:10:14;22.85;;;6.47;;
10479;SDS011;12789;42.610;23.040;2022-07-23T19:12:47;13.55;;;6.30;;
10479;SDS011;12789;42.610;23.040;2022-07-23T19:30:12;13.48;;;5.88;;
10479;SDS011;12789;42.610;23.040;2022-07-23T19:33:21;13.73;;;5.28;;
10479;SDS011;12789;42.610;23.040;2022-07-23T19:38:31;13.38;;;5.45;;
10479;SDS011;12789;42.610;23.040;2022-07-23T19:59:11;16.55;;;5.63;;
10479;SDS011;12789;42.610;23.040;2022-07-23T20:01:49;16.83;;;5.60;;
10479;SDS011;12789;42.610;23.040;2022-07-23T20:04:23;8.90;;;5.38;;
10479;SDS011;12789;42.610;23.040;2022-07-23T20:15:18;16.23;;;5.65;;
10479;SDS011;12789;42.610;23.040;2022-07-23T20:18:38;12.70;;;5.28;;
10479;SDS011;12789;42.610;23.040;2022-07-23T20:21:23;21.40;;;6.22;;
10479;SDS011;12789;42.610;23.040;2022-07-23T20:24:14;16.20;;;4.85;;
10479;SDS011;12789;42.610;23.040;2022-07-23T20:28:23;11.15;;;5.47;;
10479;SDS011;12789;42.610;23.040;2022-07-23T20:29:59;19.58;;;5.55;;
10479;SDS011;12789;42.610;23.040;2022-07-23T20:32:32;11.20;;;5.13;;
10479;SDS011;12789;42.610;23.040;2022-07-23T20:36:28;16.15;;;5.47;;
10479;SDS011;12789;42.610;23.040;2022-07-23T20:39:25;12.95;;;5.47;;
10479;SDS011;12789;42.610;23.040;2022-07-23T20:42:41;16.38;;;5.63;;
10479;SDS011;12789;42.610;23.040;2022-07-23T20:45:11;15.45;;;5.35;;
10479;SDS011;12789;42.610;23.040;2022-07-23T20:47:43;11.30;;;4.95;;
10479;SDS011;12789;42.610;23.040;2022-07-23T20:50:11;10.80;;;5.20;;
10479;SDS011;12789;42.610;23.040;2022-07-23T20:52:38;10.25;;;5.88;;
10479;SDS011;12789;42.610;23.040;2022-07-23T20:55:05;14.65;;;5.57;;
10479;SDS011;12789;42.610;23.040;2022-07-23T21:01:21;18.92;;;6.57;;
10479;SDS011;12789;42.610;23.040;2022-07-23T21:03:51;11.38;;;5.57;;
10479;SDS011;12789;42.610;23.040;2022-07-23T21:06:18;7.32;;;4.85;;
10479;SDS011;12789;42.610;23.040;2022-07-23T21:08:48;8.98;;;4.82;;
10479;SDS011;12789;42.610;23.040;2022-07-23T21:11:14;11.45;;;5.60;;
10479;SDS011;12789;42.610;23.040;2022-07-23T21:13:41;10.52;;;5.20;;